createdAt,value
2019-04-02T00:01:54.520Z,2.73
2019-04-02T00:04:25.478Z,2.90
2019-04-02T00:06:54.901Z,2.10
2019-04-02T00:09:25.262Z,2.63
2019-04-02T00:11:55.106Z,2.10
2019-04-02T00:14:24.505Z,2.40
2019-04-02T00:16:53.926Z,2.67
2019-04-02T00:19:24.464Z,2.13
2019-04-02T00:21:53.939Z,2.60
2019-04-02T00:24:23.457Z,2.23
2019-04-02T00:26:53.008Z,2.37
2019-04-02T00:29:24.148Z,1.97
2019-04-02T00:31:53.627Z,2.80
2019-04-02T00:34:23.135Z,2.50
2019-04-02T00:36:52.639Z,2.60
2019-04-02T00:39:22.124Z,3.20
2019-04-02T00:41:51.589Z,3.40
2019-04-02T00:44:21.072Z,2.80
2019-04-02T00:46:50.637Z,3.00
2019-04-02T00:49:20.080Z,3.07
2019-04-02T00:51:49.581Z,3.00
2019-04-02T00:54:22.259Z,2.53
2019-04-02T00:56:52.309Z,2.70
2019-04-02T00:59:21.947Z,3.20
2019-04-02T01:01:51.594Z,2.67
2019-04-02T01:04:21.073Z,2.83
2019-04-02T01:06:50.682Z,2.50
2019-04-02T01:09:20.151Z,2.80
2019-04-02T01:11:50.151Z,2.27
2019-04-02T01:14:19.857Z,2.90
2019-04-02T01:16:49.305Z,3.10
2019-04-02T01:19:19.852Z,3.17
2019-04-02T01:21:49.334Z,3.70
2019-04-02T01:24:20.482Z,3.80
2019-04-02T01:26:51.066Z,3.23
2019-04-02T01:29:22.486Z,2.63
2019-04-02T01:31:51.901Z,2.90
2019-04-02T01:34:21.330Z,3.30
2019-04-02T01:36:50.731Z,3.00
2019-04-02T01:39:20.168Z,3.20
2019-04-02T01:41:49.594Z,2.83
2019-04-02T01:44:19.004Z,2.83
2019-04-02T01:46:48.522Z,3.17
2019-04-02T01:49:17.927Z,3.03
2019-04-02T01:51:47.359Z,3.13
2019-04-02T01:54:21.814Z,3.27
2019-04-02T01:56:52.212Z,2.80
2019-04-02T01:59:21.789Z,3.17
2019-04-02T02:01:51.275Z,3.03
2019-04-02T02:04:20.845Z,3.00
2019-04-02T02:06:50.280Z,3.53
2019-04-02T02:09:31.536Z,3.17
2019-04-02T02:12:03.989Z,3.27
2019-04-02T02:14:33.420Z,3.37
2019-04-02T02:17:02.833Z,3.83
2019-04-02T02:19:32.274Z,4.07
2019-04-02T02:22:01.684Z,3.43
2019-04-02T02:24:31.089Z,3.20
2019-04-02T02:27:00.721Z,3.60
2019-04-02T02:29:32.477Z,3.17
2019-04-02T02:32:01.912Z,3.50
2019-04-02T02:34:32.395Z,3.10
2019-04-02T02:37:01.897Z,3.50
2019-04-02T02:39:31.315Z,3.40
2019-04-02T02:42:05.697Z,3.00
2019-04-02T02:44:35.543Z,3.40
2019-04-02T02:47:05.425Z,3.03
2019-04-02T02:49:34.971Z,3.80
2019-04-02T02:52:04.561Z,3.30
2019-04-02T02:54:34.042Z,3.60
2019-04-02T02:57:03.542Z,3.67
2019-04-02T02:59:33.390Z,3.83
2019-04-02T03:02:03.033Z,4.07
2019-04-02T03:04:32.421Z,3.80
2019-04-02T03:07:03.478Z,4.00
2019-04-02T03:09:34.362Z,4.10
2019-04-02T03:12:06.198Z,3.67
2019-04-02T03:14:39.369Z,4.30
2019-04-02T03:17:11.339Z,3.73
2019-04-02T03:19:40.184Z,3.50
2019-04-02T03:22:09.802Z,3.43
2019-04-02T03:24:40.769Z,3.40
2019-04-02T03:27:13.823Z,4.17
2019-04-02T03:29:43.263Z,4.40
2019-04-02T03:32:12.745Z,3.60
2019-04-02T03:34:42.251Z,4.70
2019-04-02T03:37:11.694Z,4.33
2019-04-02T03:39:41.179Z,4.70
2019-04-02T03:42:11.394Z,4.30
2019-04-02T03:44:43.164Z,4.63
2019-04-02T03:47:14.654Z,3.97
2019-04-02T03:49:45.537Z,4.10
2019-04-02T03:52:17.055Z,3.77
2019-04-02T03:54:46.617Z,4.50
2019-04-02T03:57:16.066Z,4.20
2019-04-02T03:59:45.468Z,4.27
2019-04-02T04:02:14.901Z,4.13
2019-04-02T04:04:44.311Z,4.40
2019-04-02T04:07:13.756Z,4.83
2019-04-02T04:09:43.219Z,4.13
2019-04-02T04:12:13.017Z,4.50
2019-04-02T04:14:45.083Z,4.57
2019-04-02T04:17:13.787Z,4.57
2019-04-02T04:19:43.228Z,4.50
2019-04-02T04:22:12.651Z,4.47
2019-04-02T04:24:42.553Z,4.77
2019-04-02T04:27:11.996Z,4.60
2019-04-02T04:29:41.411Z,7.50
2019-04-02T04:32:10.929Z,5.00
2019-04-02T04:34:40.553Z,5.50
2019-04-02T04:37:11.116Z,5.57
2019-04-02T04:39:42.241Z,5.60
2019-04-02T04:42:11.745Z,5.60
2019-04-02T04:44:41.184Z,7.90
2019-04-02T04:47:10.598Z,5.97
2019-04-02T04:49:40.032Z,5.87
2019-04-02T04:52:09.438Z,6.70
2019-04-02T04:54:38.935Z,7.03
2019-04-02T04:57:08.388Z,6.27
2019-04-02T04:59:37.896Z,6.87
2019-04-02T05:02:43.804Z,6.10
2019-04-02T05:05:13.250Z,6.73
2019-04-02T05:07:44.407Z,6.50
2019-04-02T05:10:15.047Z,5.80
2019-04-02T05:12:44.962Z,5.93
2019-04-02T05:15:14.657Z,6.83
2019-04-02T05:17:47.254Z,8.13
2019-04-02T05:20:17.781Z,6.57
2019-04-02T05:22:47.199Z,5.30
2019-04-02T05:25:16.777Z,5.20
2019-04-02T05:27:46.191Z,5.77
2019-04-02T05:30:16.825Z,6.03
2019-04-02T05:32:46.269Z,5.83
2019-04-02T05:35:16.159Z,5.80
2019-04-02T05:37:45.659Z,5.90
2019-04-02T05:40:15.624Z,5.43
2019-04-02T05:42:47.345Z,5.67
2019-04-02T05:45:16.887Z,6.10
2019-04-02T05:47:46.317Z,8.03
2019-04-02T05:50:15.876Z,8.53
2019-04-02T05:52:45.313Z,6.83
2019-04-02T05:55:14.805Z,6.73
2019-04-02T05:57:44.221Z,5.63
2019-04-02T06:00:14.070Z,6.07
2019-04-02T06:02:44.675Z,5.13
2019-04-02T06:05:14.236Z,5.90
2019-04-02T06:07:43.678Z,5.53
2019-04-02T06:10:13.170Z,5.07
2019-04-02T06:12:42.609Z,5.70
2019-04-02T06:15:12.190Z,5.17
2019-04-02T06:17:44.798Z,5.73
2019-04-02T06:20:19.676Z,5.50
2019-04-02T06:22:49.920Z,5.30
2019-04-02T06:25:20.413Z,5.70
2019-04-02T06:27:49.852Z,4.83
2019-04-02T06:30:19.477Z,5.50
2019-04-02T06:32:53.786Z,5.43
2019-04-02T06:35:23.286Z,5.57
2019-04-02T06:37:52.798Z,5.80
2019-04-02T06:40:22.454Z,5.27
2019-04-02T06:42:51.864Z,6.47
2019-04-02T06:45:24.431Z,5.87
2019-04-02T06:48:03.656Z,6.23
2019-04-02T06:50:34.822Z,6.40
2019-04-02T06:53:04.453Z,6.10
2019-04-02T06:55:33.941Z,5.97
2019-04-02T06:58:03.514Z,5.70
2019-04-02T07:00:36.198Z,6.27
2019-04-02T07:03:07.023Z,5.83
2019-04-02T07:05:37.997Z,5.33
2019-04-02T07:08:07.790Z,5.37
2019-04-02T07:10:43.650Z,5.80
2019-04-02T07:13:08.461Z,5.37
2019-04-02T07:15:37.892Z,5.33
2019-04-02T07:18:07.384Z,5.73
2019-04-02T07:20:36.880Z,6.50
2019-04-02T07:23:07.701Z,5.60
2019-04-02T07:25:37.451Z,5.87
2019-04-02T07:28:06.897Z,5.77
2019-04-02T07:30:36.458Z,5.73
2019-04-02T07:33:05.889Z,5.53
2019-04-02T07:35:35.361Z,5.70
2019-04-02T07:38:06.223Z,5.80
2019-04-02T07:40:37.334Z,6.30
2019-04-02T07:43:08.964Z,5.80
2019-04-02T07:45:41.670Z,5.40
2019-04-02T07:48:10.799Z,5.73
2019-04-02T07:50:40.213Z,6.30
2019-04-02T07:53:09.737Z,5.90
2019-04-02T07:55:40.664Z,5.90
2019-04-02T07:58:10.101Z,6.27
2019-04-02T08:00:39.550Z,6.10
2019-04-02T08:03:09.060Z,5.80
2019-04-02T08:05:38.572Z,5.97
2019-04-02T08:08:08.134Z,6.50
2019-04-02T08:10:37.584Z,6.40
2019-04-02T08:13:07.135Z,6.60
2019-04-02T08:15:36.626Z,6.40
2019-04-02T08:18:07.181Z,6.73
2019-04-02T08:20:36.690Z,6.10
2019-04-02T08:23:06.318Z,6.63
2019-04-02T08:25:35.830Z,6.63
2019-04-02T08:28:05.386Z,6.13
2019-04-02T08:30:35.589Z,6.17
2019-04-02T08:33:05.130Z,6.83
2019-04-02T08:35:34.635Z,6.47
2019-04-02T08:38:08.207Z,6.07
2019-04-02T08:40:37.892Z,6.30
2019-04-02T08:43:07.508Z,7.17
2019-04-02T08:45:37.054Z,6.17
2019-04-02T08:48:06.498Z,6.80
2019-04-02T08:50:35.917Z,7.30
2019-04-02T08:53:05.558Z,6.80
2019-04-02T08:55:35.467Z,6.60
2019-04-02T08:58:06.120Z,6.57
2019-04-02T09:00:35.773Z,7.00
2019-04-02T09:03:05.624Z,7.10
2019-04-02T09:05:40.296Z,7.13
2019-04-02T09:08:07.687Z,7.17
2019-04-02T09:10:38.132Z,6.53
2019-04-02T09:13:07.589Z,7.70
2019-04-02T09:15:37.015Z,7.27
2019-04-02T09:18:07.098Z,7.37
2019-04-02T09:20:36.618Z,6.80
2019-04-02T09:23:06.184Z,7.47
2019-04-02T09:25:35.769Z,7.40
2019-04-02T09:28:06.891Z,7.43
2019-04-02T09:30:36.718Z,6.90
2019-04-02T09:33:06.282Z,7.37
2019-04-02T09:35:35.802Z,8.00
2019-04-02T09:38:05.403Z,7.60
2019-04-02T09:40:34.884Z,8.20
2019-04-02T09:43:04.473Z,7.67
2019-04-02T09:45:33.888Z,7.27
2019-04-02T09:48:03.402Z,7.93
2019-04-02T09:50:33.288Z,7.07
2019-04-02T09:53:05.490Z,8.00
2019-04-02T09:55:47.897Z,8.40
2019-04-02T09:58:06.511Z,8.23
2019-04-02T10:00:36.559Z,7.80
2019-04-02T10:03:06.349Z,8.50
2019-04-02T10:05:35.936Z,8.63
2019-04-02T10:08:05.711Z,9.10
2019-04-02T10:10:35.309Z,8.70
2019-04-02T10:13:05.483Z,9.10
2019-04-02T10:15:35.000Z,9.00
2019-04-02T10:18:04.655Z,10.00
2019-04-02T10:20:34.713Z,9.23
2019-04-02T10:23:05.738Z,8.90
2019-04-02T10:25:35.305Z,9.40
2019-04-02T10:28:05.794Z,9.47
2019-04-02T10:30:35.847Z,9.07
2019-04-02T10:33:05.415Z,9.53
2019-04-02T10:35:34.920Z,9.93
2019-04-02T10:38:05.850Z,10.23
2019-04-02T10:40:36.679Z,9.73
2019-04-02T10:43:06.390Z,9.57
2019-04-02T10:45:37.665Z,8.73
2019-04-02T10:48:08.865Z,9.87
2019-04-02T10:50:40.061Z,9.80
2019-04-02T10:53:09.965Z,9.93
2019-04-02T10:55:39.478Z,9.63
2019-04-02T10:58:11.361Z,9.47
2019-04-02T11:00:40.709Z,10.17
2019-04-02T11:03:10.353Z,9.97
2019-04-02T11:05:39.867Z,10.67
2019-04-02T11:08:09.358Z,10.80
2019-04-02T11:10:38.808Z,10.40
2019-04-02T11:13:08.301Z,10.20
2019-04-02T11:15:37.884Z,10.97
2019-04-02T11:18:07.447Z,10.40
2019-04-02T11:20:36.978Z,10.30
2019-04-02T11:23:06.470Z,10.27
2019-04-02T11:25:36.006Z,10.27
2019-04-02T11:28:05.525Z,10.60
2019-04-02T11:30:35.182Z,10.70
2019-04-02T11:33:04.778Z,11.67
2019-04-02T11:35:34.273Z,11.33
2019-04-02T11:38:03.810Z,11.67
2019-04-02T11:40:33.296Z,11.50
2019-04-02T11:43:02.748Z,12.00
2019-04-02T11:45:32.240Z,11.27
2019-04-02T11:48:01.699Z,12.00
2019-04-02T11:50:31.198Z,12.27
2019-04-02T11:53:00.664Z,12.20
2019-04-02T11:55:30.166Z,11.50
2019-04-02T11:57:59.610Z,11.93
2019-04-02T12:00:30.824Z,12.37
2019-04-02T12:03:00.349Z,12.07
2019-04-02T12:05:29.773Z,11.90
2019-04-02T12:07:59.367Z,12.03
2019-04-02T12:10:28.815Z,12.53
2019-04-02T12:12:59.316Z,12.10
2019-04-02T12:15:40.317Z,12.23
2019-04-02T12:17:59.955Z,11.80
2019-04-02T12:20:29.400Z,12.53
2019-04-02T12:22:58.975Z,12.70
2019-04-02T12:25:28.419Z,13.03
2019-04-02T12:27:57.916Z,13.60
2019-04-02T12:30:27.431Z,12.57
2019-04-02T12:32:56.877Z,13.93
2019-04-02T12:35:26.345Z,14.27
2019-04-02T12:37:55.844Z,13.13
2019-04-02T12:40:25.363Z,13.77
2019-04-02T12:42:54.885Z,13.93
2019-04-02T12:45:24.345Z,12.50
2019-04-02T12:47:53.852Z,13.80
2019-04-02T12:50:23.351Z,13.30
2019-04-02T12:52:52.803Z,14.23
2019-04-02T12:55:22.295Z,14.23
2019-04-02T12:57:52.245Z,13.80
2019-04-02T13:00:22.173Z,13.83
2019-04-02T13:02:51.886Z,13.80
2019-04-02T13:05:21.372Z,13.83
2019-04-02T13:07:50.903Z,13.47
2019-04-02T13:10:20.396Z,13.57
2019-04-02T13:12:51.186Z,14.27
2019-04-02T13:15:25.245Z,13.90
2019-04-02T13:17:51.904Z,14.57
2019-04-02T13:20:21.480Z,13.70
2019-04-02T13:22:51.063Z,14.13
2019-04-02T13:25:20.493Z,14.93
2019-04-02T13:27:49.946Z,15.57
2019-04-02T13:30:20.818Z,14.53
2019-04-02T13:32:50.266Z,14.93
2019-04-02T13:35:19.787Z,14.27
2019-04-02T13:37:49.291Z,15.13
2019-04-02T13:40:18.950Z,14.77
2019-04-02T13:42:50.568Z,15.00
2019-04-02T13:45:20.847Z,14.30
2019-04-02T13:47:51.193Z,15.17
2019-04-02T13:50:20.734Z,15.40
2019-04-02T13:52:50.163Z,14.60
2019-04-02T13:55:19.709Z,14.60
2019-04-02T13:57:50.395Z,15.20
2019-04-02T14:00:25.680Z,14.63
2019-04-02T14:02:55.133Z,15.13
2019-04-02T14:05:24.571Z,15.13
2019-04-02T14:07:54.021Z,14.97
2019-04-02T14:10:23.533Z,15.57
2019-04-02T14:12:53.041Z,15.57
2019-04-02T14:15:22.606Z,15.80
2019-04-02T14:17:52.173Z,15.80
2019-04-02T14:20:21.687Z,15.50
2019-04-02T14:22:51.221Z,15.83
2019-04-02T14:25:20.760Z,16.10
2019-04-02T14:27:50.189Z,15.60
2019-04-02T14:30:19.803Z,14.93
2019-04-02T14:32:49.235Z,15.30
2019-04-02T14:35:18.838Z,15.97
2019-04-02T14:37:48.323Z,16.03
2019-04-02T14:40:17.909Z,15.43
2019-04-02T14:42:47.410Z,14.83
2019-04-02T14:45:16.997Z,15.40
2019-04-02T14:47:46.433Z,16.20
2019-04-02T14:50:16.538Z,15.60
2019-04-02T14:52:46.111Z,15.57
2019-04-02T14:55:17.916Z,14.50
2019-04-02T14:57:48.320Z,14.97
2019-04-02T15:00:18.273Z,14.90
2019-04-02T15:02:47.997Z,15.17
2019-04-02T15:05:17.441Z,13.73
2019-04-02T15:07:46.972Z,14.73
2019-04-02T15:10:16.473Z,13.90
2019-04-02T15:12:46.019Z,14.13
2019-04-02T15:15:15.589Z,14.83
2019-04-02T15:17:45.112Z,15.77
2019-04-02T15:20:18.804Z,14.73
2019-04-02T15:22:47.356Z,14.93
2019-04-02T15:25:16.818Z,13.63
2019-04-02T15:27:50.382Z,14.50
2019-04-02T15:30:18.294Z,14.47
2019-04-02T15:32:47.816Z,14.53
2019-04-02T15:35:17.268Z,15.47
2019-04-02T15:37:46.709Z,14.90
2019-04-02T15:40:16.304Z,14.13
2019-04-02T15:42:45.732Z,15.53
2019-04-02T15:45:16.960Z,15.07
2019-04-02T15:47:46.456Z,14.80
2019-04-02T15:50:16.223Z,15.30
2019-04-02T15:52:45.736Z,15.83
2019-04-02T15:55:15.332Z,14.57
2019-04-02T15:57:44.847Z,15.07
2019-04-02T16:00:26.183Z,14.60
2019-04-02T16:02:48.708Z,15.43
2019-04-02T16:05:17.854Z,16.27
2019-04-02T16:07:47.475Z,14.70
2019-04-02T16:10:17.179Z,15.27
2019-04-02T16:12:46.640Z,15.20
2019-04-02T16:15:17.878Z,14.80
2019-04-02T16:17:47.407Z,14.67
2019-04-02T16:20:17.191Z,15.07
2019-04-02T16:22:46.653Z,15.97
2019-04-02T16:25:16.202Z,15.47
2019-04-02T16:27:45.721Z,15.63
2019-04-02T16:30:15.430Z,16.77
2019-04-02T16:32:45.045Z,16.10
2019-04-02T16:35:14.990Z,16.60
2019-04-02T16:37:47.052Z,16.40
2019-04-02T16:40:17.179Z,15.67
2019-04-02T16:42:46.637Z,15.67
2019-04-02T16:45:16.321Z,15.57
2019-04-02T16:47:45.774Z,15.87
2019-04-02T16:50:15.455Z,16.40
2019-04-02T16:52:44.963Z,16.27
2019-04-02T16:55:15.975Z,15.67
2019-04-02T16:57:46.260Z,16.03
2019-04-02T17:00:17.260Z,16.67
2019-04-02T17:02:46.729Z,16.47
2019-04-02T17:05:16.233Z,16.20
2019-04-02T17:07:47.220Z,16.43
2019-04-02T17:10:17.615Z,16.83
2019-04-02T17:12:48.212Z,17.53
2019-04-02T17:15:17.637Z,17.77
2019-04-02T17:17:47.106Z,16.57
2019-04-02T17:20:19.680Z,17.33
2019-04-02T17:22:50.529Z,17.00
2019-04-02T17:25:21.671Z,16.67
2019-04-02T17:27:54.719Z,16.37
2019-04-02T17:30:23.424Z,17.10
2019-04-02T17:32:56.956Z,16.10
2019-04-02T17:35:26.556Z,17.73
2019-04-02T17:37:56.543Z,16.87
2019-04-02T17:40:26.038Z,17.20
2019-04-02T17:42:56.034Z,17.93
2019-04-02T17:45:25.762Z,17.17
2019-04-02T17:47:56.737Z,17.40
2019-04-02T17:50:26.805Z,16.87
2019-04-02T17:52:56.418Z,17.50
2019-04-02T17:55:25.877Z,17.57
2019-04-02T17:57:56.909Z,17.67
2019-04-02T18:00:26.603Z,18.07
2019-04-02T18:02:59.296Z,17.70
2019-04-02T18:05:28.815Z,19.37
2019-04-02T18:07:58.322Z,18.90
2019-04-02T18:10:29.624Z,19.10
2019-04-02T18:13:00.506Z,19.33
2019-04-02T18:15:31.726Z,18.93
2019-04-02T18:18:01.270Z,20.57
2019-04-02T18:20:36.376Z,19.50
2019-04-02T18:23:05.869Z,18.97
2019-04-02T18:25:35.781Z,18.53
2019-04-02T18:28:05.883Z,18.50
2019-04-02T18:30:35.480Z,19.37
2019-04-02T18:33:04.985Z,18.47
2019-04-02T18:35:34.524Z,18.93
2019-04-02T18:38:07.073Z,18.80
2019-04-02T18:40:37.892Z,19.20
2019-04-02T18:43:07.123Z,17.73
2019-04-02T18:45:36.639Z,18.17
2019-04-02T18:48:06.158Z,18.40
2019-04-02T18:50:35.620Z,18.67
2019-04-02T18:53:05.133Z,18.87
2019-04-02T18:55:34.599Z,18.23
2019-04-02T18:58:04.239Z,18.37
2019-04-02T19:00:35.511Z,19.10
2019-04-02T19:03:05.066Z,17.90
2019-04-02T19:05:34.663Z,18.33
2019-04-02T19:08:04.195Z,18.90
2019-04-02T19:10:33.699Z,19.27
2019-04-02T19:13:03.263Z,18.90
2019-04-02T19:15:32.748Z,18.13
2019-04-02T19:18:02.193Z,18.40
2019-04-02T19:20:31.716Z,18.97
2019-04-02T19:23:02.031Z,18.70
2019-04-02T19:25:35.056Z,18.13
2019-04-02T19:28:03.345Z,18.57
2019-04-02T19:30:32.876Z,18.47
2019-04-02T19:33:02.325Z,18.50
2019-04-02T19:35:34.624Z,18.73
2019-04-02T19:38:03.283Z,18.43
2019-04-02T19:40:32.809Z,18.73
2019-04-02T19:43:07.851Z,19.63
2019-04-02T19:45:33.550Z,20.47
2019-04-02T19:48:03.645Z,19.93
2019-04-02T19:50:34.458Z,21.00
2019-04-02T19:53:03.920Z,20.83
2019-04-02T19:55:33.542Z,22.20
2019-04-02T19:58:03.227Z,21.77
2019-04-02T20:00:32.710Z,21.90
2019-04-02T20:03:02.169Z,22.33
2019-04-02T20:05:32.515Z,22.13
2019-04-02T20:08:02.690Z,22.60
2019-04-02T20:10:32.184Z,23.00
2019-04-02T20:13:01.659Z,24.27
2019-04-02T20:15:31.220Z,24.57
2019-04-02T20:18:00.689Z,25.20
2019-04-02T20:20:30.210Z,26.67
2019-04-02T20:22:59.703Z,26.10
2019-04-02T20:25:30.921Z,25.57
2019-04-02T20:28:00.440Z,25.23
2019-04-02T20:30:29.964Z,25.33
2019-04-02T20:33:02.660Z,27.27
2019-04-02T20:35:32.195Z,27.07
2019-04-02T20:38:01.628Z,25.20
2019-04-02T20:40:32.152Z,24.93
2019-04-02T20:43:01.605Z,24.03
2019-04-02T20:45:32.200Z,25.57
2019-04-02T20:48:03.773Z,26.33
2019-04-02T20:50:33.772Z,27.43
2019-04-02T20:53:15.882Z,26.60
2019-04-02T20:55:35.978Z,27.87
2019-04-02T20:58:05.778Z,24.70
2019-04-02T21:00:35.431Z,23.70
2019-04-02T21:03:05.083Z,25.07
2019-04-02T21:05:35.058Z,23.37
2019-04-02T21:08:04.627Z,23.10
2019-04-02T21:10:34.157Z,22.87
2019-04-02T21:13:13.996Z,21.60
2019-04-02T21:15:37.191Z,20.83
2019-04-02T21:18:05.915Z,21.90
2019-04-02T21:20:35.391Z,22.43
2019-04-02T21:23:04.805Z,21.93
2019-04-02T21:25:34.319Z,22.43
2019-04-02T21:28:03.774Z,22.53
2019-04-02T21:30:33.192Z,23.57
2019-04-02T21:33:02.615Z,24.30
2019-04-02T21:35:43.435Z,23.03
2019-04-02T21:38:03.454Z,22.80
2019-04-02T21:40:34.933Z,23.43
2019-04-02T21:43:05.450Z,23.67
2019-04-02T21:45:35.932Z,23.47
2019-04-02T21:48:07.229Z,21.77
2019-04-02T21:50:37.828Z,22.20
2019-04-02T21:53:09.808Z,22.10
2019-04-02T21:55:38.459Z,21.80
2019-04-02T21:58:07.938Z,20.47
2019-04-02T22:00:39.224Z,20.70
2019-04-02T22:03:10.613Z,20.23
2019-04-02T22:05:41.308Z,19.70
2019-04-02T22:08:12.532Z,20.33
2019-04-02T22:10:42.948Z,19.03
2019-04-02T22:13:14.367Z,19.00
2019-04-02T22:15:46.928Z,18.57
2019-04-02T22:18:16.413Z,19.40
2019-04-02T22:20:45.836Z,20.43
2019-04-02T22:23:15.284Z,20.17
2019-04-02T22:25:44.733Z,21.70
2019-04-02T22:28:15.758Z,21.63
2019-04-02T22:30:47.140Z,20.60
2019-04-02T22:33:18.229Z,23.60
2019-04-02T22:35:47.871Z,23.37
2019-04-02T22:38:18.414Z,23.93
2019-04-02T22:40:47.844Z,23.77
2019-04-02T22:43:17.352Z,22.30
2019-04-02T22:45:48.154Z,22.47
2019-04-02T22:48:18.784Z,21.67
2019-04-02T22:50:48.227Z,22.83
2019-04-02T22:53:17.738Z,23.13
2019-04-02T22:55:47.227Z,23.43
2019-04-02T22:58:16.749Z,22.33
2019-04-02T23:00:46.343Z,22.33
2019-04-02T23:03:16.881Z,21.80
2019-04-02T23:05:46.322Z,22.03
2019-04-02T23:08:15.901Z,22.37
2019-04-02T23:10:45.417Z,20.50
2019-04-02T23:13:14.951Z,21.07
2019-04-02T23:15:44.542Z,20.63
2019-04-02T23:18:25.666Z,19.73
2019-04-02T23:20:45.254Z,18.60
2019-04-02T23:23:16.259Z,18.57
2019-04-02T23:25:47.611Z,19.00
2019-04-02T23:28:19.479Z,18.80
2019-04-02T23:30:48.220Z,18.03
2019-04-02T23:33:17.678Z,18.70
2019-04-02T23:35:47.171Z,18.30
2019-04-02T23:38:16.617Z,17.77
2019-04-02T23:40:46.053Z,17.47
2019-04-02T23:43:15.506Z,16.87
2019-04-02T23:45:45.002Z,17.20
2019-04-02T23:48:14.450Z,16.00
2019-04-02T23:50:43.919Z,16.27
2019-04-02T23:53:13.315Z,14.67
2019-04-02T23:55:42.759Z,14.13
2019-04-02T23:58:13.703Z,13.60
